createdAt,value
2022-07-29T00:01:09.491Z,99351.13
2022-07-29T00:03:51.931Z,99347.91
2022-07-29T00:06:22.637Z,99344.31
2022-07-29T00:08:57.585Z,99346.63
2022-07-29T00:11:24.950Z,99339.34
2022-07-29T00:13:52.153Z,99344.13
2022-07-29T00:16:19.461Z,99345.75
2022-07-29T00:18:47.003Z,99338.91
2022-07-29T00:21:14.058Z,99341.69
2022-07-29T00:23:41.355Z,99349.72
2022-07-29T00:26:08.784Z,99348.88
2022-07-29T00:28:36.207Z,99341.66
2022-07-29T00:31:12.181Z,99346.44
2022-07-29T00:33:40.407Z,99340.84
2022-07-29T00:36:07.868Z,99344.81
2022-07-29T00:38:35.076Z,99335.94
2022-07-29T00:41:02.419Z,99344.72
2022-07-29T00:43:29.537Z,99331.06
2022-07-29T00:45:56.699Z,99341.47
2022-07-29T00:48:24.082Z,99346.28
2022-07-29T00:50:52.594Z,99340.78
2022-07-29T00:53:21.491Z,99349.94
2022-07-29T00:56:04.352Z,99351.88
2022-07-29T00:58:33.496Z,99353.81
2022-07-29T01:01:04.627Z,99342.22
2022-07-29T01:03:31.839Z,99347.09
2022-07-29T01:05:59.769Z,99342.94
2022-07-29T01:08:27.059Z,99348.88
2022-07-29T01:10:55.365Z,99342.78
2022-07-29T01:13:28.964Z,99358.81
2022-07-29T01:16:21.096Z,99357.13
2022-07-29T01:18:56.087Z,99348.69
2022-07-29T01:21:42.370Z,99355.47
2022-07-29T01:24:27.224Z,99339.38
2022-07-29T01:27:16.861Z,99351.28
2022-07-29T01:29:53.716Z,99337.59
2022-07-29T01:32:28.760Z,99342.84
2022-07-29T01:35:03.225Z,99345.25
2022-07-29T01:37:52.653Z,99351.66
2022-07-29T01:40:52.467Z,99353.16
2022-07-29T01:43:34.182Z,99334.31
2022-07-29T01:46:10.381Z,99327.47
2022-07-29T01:48:46.959Z,99337.22
2022-07-29T01:51:28.356Z,99335.22
2022-07-29T01:54:09.751Z,99336.06
2022-07-29T01:56:39.559Z,99338.13
2022-07-29T01:59:09.581Z,99329.63
2022-07-29T02:01:49.770Z,99330.50
2022-07-29T02:04:29.746Z,99291.13
2022-07-29T02:07:10.401Z,99333.88
2022-07-29T02:09:39.195Z,99331.03
2022-07-29T02:12:08.433Z,99332.31
2022-07-29T02:14:40.564Z,99332.34
2022-07-29T02:17:08.779Z,99316.69
2022-07-29T02:19:39.156Z,99320.06
2022-07-29T02:22:08.149Z,99326.00
2022-07-29T02:24:42.029Z,99325.56
2022-07-29T02:27:16.689Z,99330.69
2022-07-29T02:29:52.008Z,99332.72
2022-07-29T02:32:31.619Z,99331.44
2022-07-29T02:35:01.089Z,99327.38
2022-07-29T02:37:30.272Z,99335.75
2022-07-29T02:39:59.729Z,99349.25
2022-07-29T02:42:29.174Z,99334.38
2022-07-29T02:44:56.966Z,99340.41
2022-07-29T02:47:42.737Z,99346.41
2022-07-29T02:50:26.680Z,99345.22
2022-07-29T02:53:25.841Z,99341.25
2022-07-29T02:55:58.430Z,99338.03
2022-07-29T02:58:30.406Z,99330.03
2022-07-29T03:01:10.108Z,99334.72
2022-07-29T03:03:39.307Z,99328.28
2022-07-29T03:06:09.635Z,99330.97
2022-07-29T03:08:58.888Z,99333.75
2022-07-29T03:11:42.171Z,99349.69
2022-07-29T03:14:21.046Z,99345.72
2022-07-29T03:19:47.033Z,99356.03
2022-07-29T03:22:15.361Z,99360.75
2022-07-29T03:24:46.422Z,99346.00
2022-07-29T03:27:14.488Z,99355.22
2022-07-29T03:29:41.640Z,99366.50
2022-07-29T03:32:17.569Z,99368.00
2022-07-29T03:34:54.247Z,99370.63
2022-07-29T03:37:24.509Z,99364.56
2022-07-29T03:39:53.581Z,99362.94
2022-07-29T03:42:25.275Z,99367.34
2022-07-29T03:44:58.205Z,99362.06
2022-07-29T03:47:49.580Z,99364.44
2022-07-29T03:50:19.317Z,99364.56
2022-07-29T03:52:47.239Z,99354.56
2022-07-29T03:55:19.484Z,99357.47
2022-07-29T03:57:55.692Z,99369.13
2022-07-29T04:00:31.854Z,99355.16
2022-07-29T04:03:10.661Z,99358.34
2022-07-29T04:05:39.783Z,99367.47
2022-07-29T04:08:07.478Z,99357.81
2022-07-29T04:10:35.840Z,99378.00
2022-07-29T04:13:03.582Z,99385.59
2022-07-29T04:15:31.885Z,99381.63
2022-07-29T04:18:00.249Z,99383.84
2022-07-29T04:20:31.840Z,99391.97
2022-07-29T04:22:58.781Z,99403.53
2022-07-29T04:25:26.219Z,99402.84
2022-07-29T04:28:02.600Z,99408.53
2022-07-29T04:30:32.359Z,99400.16
2022-07-29T04:33:01.805Z,99416.22
2022-07-29T04:35:30.243Z,99411.50
2022-07-29T04:38:07.731Z,99410.72
2022-07-29T04:40:43.123Z,99400.38
2022-07-29T04:43:10.321Z,99409.72
2022-07-29T04:45:47.441Z,99411.38
2022-07-29T04:48:16.025Z,99411.13
2022-07-29T04:50:47.314Z,99406.28
2022-07-29T04:53:16.277Z,99410.84
2022-07-29T04:55:43.375Z,99412.97
2022-07-29T04:58:10.633Z,99419.50
2022-07-29T05:00:42.039Z,99416.81
2022-07-29T05:03:13.722Z,99414.13
2022-07-29T05:05:41.958Z,99416.59
2022-07-29T05:08:09.262Z,99419.16
2022-07-29T05:10:39.147Z,99427.28
2022-07-29T05:13:13.593Z,99421.28
2022-07-29T05:15:40.939Z,99411.38
2022-07-29T05:18:08.408Z,99409.81
2022-07-29T05:20:36.073Z,99417.06
2022-07-29T05:23:03.983Z,99431.09
2022-07-29T05:25:43.471Z,99421.13
2022-07-29T05:28:12.568Z,99432.81
2022-07-29T05:30:39.914Z,99433.28
2022-07-29T05:33:07.680Z,99428.53
2022-07-29T05:35:36.108Z,99442.19
2022-07-29T05:38:03.523Z,99440.28
2022-07-29T05:40:30.838Z,99433.53
2022-07-29T05:42:58.101Z,99423.50
2022-07-29T05:45:25.559Z,99431.19
2022-07-29T05:47:52.715Z,99424.78
2022-07-29T05:50:20.064Z,99427.22
2022-07-29T05:52:47.093Z,99427.66
2022-07-29T05:55:17.231Z,99429.63
2022-07-29T05:57:45.831Z,99437.66
2022-07-29T06:00:13.433Z,99428.81
2022-07-29T06:02:40.607Z,99438.88
2022-07-29T06:05:15.585Z,99444.88
2022-07-29T06:07:50.223Z,99430.81
2022-07-29T06:10:20.298Z,99437.66
2022-07-29T06:12:52.007Z,99433.22
2022-07-29T06:15:19.666Z,99428.00
2022-07-29T06:17:59.055Z,99440.84
2022-07-29T06:20:30.842Z,99450.84
2022-07-29T06:22:58.638Z,99437.13
2022-07-29T06:25:26.107Z,99453.56
2022-07-29T06:27:53.780Z,99451.13
2022-07-29T06:30:21.044Z,99455.50
2022-07-29T06:32:48.439Z,99431.34
2022-07-29T06:38:04.340Z,99450.81
2022-07-29T06:41:03.049Z,99438.31
2022-07-29T06:43:50.197Z,99441.06
2022-07-29T06:46:20.339Z,99437.84
2022-07-29T06:48:51.545Z,99438.91
2022-07-29T06:51:21.778Z,99447.28
2022-07-29T06:54:00.667Z,99447.22
2022-07-29T06:56:39.396Z,99443.09
2022-07-29T06:59:09.514Z,99444.13
2022-07-29T07:01:42.500Z,99452.50
2022-07-29T07:04:12.338Z,99442.28
2022-07-29T07:06:40.498Z,99451.41
2022-07-29T07:09:08.560Z,99457.72
2022-07-29T07:11:36.008Z,99441.63
2022-07-29T07:14:04.402Z,99453.50
2022-07-29T07:16:32.906Z,99450.91
2022-07-29T07:19:01.070Z,99445.13
2022-07-29T07:21:30.581Z,99449.50
2022-07-29T07:23:59.254Z,99434.50
2022-07-29T07:26:26.907Z,99448.91
2022-07-29T07:28:56.808Z,99449.66
2022-07-29T07:31:24.018Z,99445.47
2022-07-29T07:33:52.736Z,99444.13
2022-07-29T07:36:20.225Z,99442.72
2022-07-29T07:38:47.600Z,99433.03
2022-07-29T07:41:14.860Z,99432.91
2022-07-29T07:43:42.306Z,99442.44
2022-07-29T07:46:09.485Z,99443.25
2022-07-29T07:48:37.270Z,99432.63
2022-07-29T07:51:04.763Z,99430.75
2022-07-29T07:53:32.639Z,99438.16
2022-07-29T07:56:15.467Z,99425.16
2022-07-29T07:58:42.829Z,99423.81
2022-07-29T08:01:10.460Z,99421.41
2022-07-29T08:03:38.246Z,99429.75
2022-07-29T08:06:06.241Z,99420.47
2022-07-29T08:08:33.702Z,99420.81
2022-07-29T08:11:08.287Z,99419.47
2022-07-29T08:13:37.540Z,99421.72
2022-07-29T08:16:14.486Z,99425.50
2022-07-29T08:18:43.425Z,99386.34
2022-07-29T08:21:10.884Z,99429.22
2022-07-29T08:24:00.758Z,99429.31
2022-07-29T08:26:29.367Z,99425.69
2022-07-29T08:28:56.807Z,99432.00
2022-07-29T08:31:24.766Z,99426.09
2022-07-29T08:33:52.234Z,99419.13
2022-07-29T08:36:22.111Z,99417.81
2022-07-29T08:38:50.618Z,99430.59
2022-07-29T08:41:22.654Z,99415.69
2022-07-29T08:43:51.171Z,99422.81
2022-07-29T08:46:19.048Z,99422.81
2022-07-29T08:48:46.828Z,99418.03
2022-07-29T08:51:16.565Z,99421.50
2022-07-29T08:53:45.734Z,99417.34
2022-07-29T08:56:20.753Z,99407.34
2022-07-29T08:58:53.503Z,99398.38
2022-07-29T09:01:36.448Z,99404.06
2022-07-29T09:04:14.272Z,99389.97
2022-07-29T09:06:48.993Z,99395.59
2022-07-29T09:09:16.813Z,99391.59
2022-07-29T09:11:44.357Z,99393.41
2022-07-29T09:14:15.375Z,99394.09
2022-07-29T09:16:57.391Z,99395.69
2022-07-29T09:19:27.769Z,99395.41
2022-07-29T09:21:59.263Z,99397.63
2022-07-29T09:24:45.269Z,99409.69
2022-07-29T09:27:18.472Z,99404.00
2022-07-29T09:29:45.899Z,99393.63
2022-07-29T09:32:13.872Z,99390.28
2022-07-29T09:34:42.282Z,99382.66
2022-07-29T09:37:09.682Z,99374.31
2022-07-29T09:39:45.303Z,99376.84
2022-07-29T09:42:14.380Z,99379.59
2022-07-29T09:44:49.983Z,99383.84
2022-07-29T09:47:19.231Z,99383.94
2022-07-29T09:49:59.416Z,99383.47
2022-07-29T09:52:28.416Z,99369.38
2022-07-29T09:55:06.928Z,99374.28
2022-07-29T09:57:34.598Z,99376.94
2022-07-29T10:00:06.417Z,99385.47
2022-07-29T10:02:41.143Z,99369.22
2022-07-29T10:05:19.878Z,99379.25
2022-07-29T10:07:57.252Z,99374.28
2022-07-29T10:10:31.433Z,99367.97
2022-07-29T10:17:27.179Z,99369.16
2022-07-29T10:19:54.762Z,99355.00
2022-07-29T10:22:50.699Z,99353.63
2022-07-29T10:25:11.256Z,99346.81
2022-07-29T10:27:38.590Z,99363.19
2022-07-29T10:30:07.170Z,99349.00
2022-07-29T10:32:54.386Z,99354.78
2022-07-29T10:35:50.754Z,99356.06
2022-07-29T10:38:48.786Z,99346.50
2022-07-29T10:42:13.447Z,99356.28
2022-07-29T10:44:45.318Z,99348.75
2022-07-29T10:47:27.235Z,99337.84
2022-07-29T10:50:05.577Z,99331.59
2022-07-29T10:52:53.734Z,99334.66
2022-07-29T10:55:49.695Z,99321.44
2022-07-29T10:58:24.859Z,99332.03
2022-07-29T11:00:54.286Z,99324.84
2022-07-29T11:03:50.371Z,99328.69
2022-07-29T11:06:26.338Z,99326.69
2022-07-29T11:09:34.755Z,99317.69
2022-07-29T11:12:25.708Z,99317.09
2022-07-29T11:15:02.748Z,99303.00
2022-07-29T11:17:54.871Z,99312.28
2022-07-29T11:20:39.461Z,99316.66
2022-07-29T11:23:33.969Z,99312.56
2022-07-29T11:26:12.869Z,99309.59
2022-07-29T11:29:05.583Z,99306.47
2022-07-29T11:31:42.841Z,99305.06
2022-07-29T11:34:20.901Z,99288.41
2022-07-29T11:37:13.841Z,99296.28
2022-07-29T11:39:54.469Z,99292.44
2022-07-29T11:42:32.564Z,99294.75
2022-07-29T11:45:43.862Z,99284.28
2022-07-29T11:48:05.216Z,99278.91
2022-07-29T11:50:37.411Z,99285.06
2022-07-29T11:53:13.553Z,99269.97
2022-07-29T11:55:51.571Z,99274.47
2022-07-29T11:58:26.227Z,99272.88
2022-07-29T12:00:55.219Z,99270.09
2022-07-29T12:03:33.530Z,99257.84
2022-07-29T12:06:04.384Z,99266.63
2022-07-29T12:08:42.033Z,99251.53
2022-07-29T12:11:17.759Z,99237.19
2022-07-29T12:13:49.422Z,99253.19
2022-07-29T12:16:26.080Z,99253.66
2022-07-29T12:19:03.010Z,99238.16
2022-07-29T12:21:45.712Z,99248.00
2022-07-29T12:24:22.768Z,99237.88
2022-07-29T12:27:00.511Z,99242.31
2022-07-29T12:29:34.869Z,99239.69
2022-07-29T12:32:05.559Z,99215.69
2022-07-29T12:34:33.827Z,99246.78
2022-07-29T12:37:02.243Z,99246.03
2022-07-29T12:39:30.376Z,99226.09
2022-07-29T12:42:03.914Z,99234.06
2022-07-29T12:44:52.493Z,99233.75
2022-07-29T12:47:21.084Z,99217.31
2022-07-29T12:49:50.936Z,99230.97
2022-07-29T12:52:29.178Z,99169.50
2022-07-29T12:54:57.113Z,99214.66
2022-07-29T12:57:25.015Z,99213.75
2022-07-29T13:00:23.256Z,99215.94
2022-07-29T13:03:02.031Z,99222.16
2022-07-29T13:05:54.840Z,99209.28
2022-07-29T13:08:22.991Z,99199.97
2022-07-29T13:10:50.819Z,99203.13
2022-07-29T13:13:18.004Z,99212.00
2022-07-29T13:15:50.026Z,99195.34
2022-07-29T13:18:34.858Z,99199.81
2022-07-29T13:21:14.106Z,99183.47
2022-07-29T13:23:41.602Z,99176.34
2022-07-29T13:26:10.444Z,99193.78
2022-07-29T13:28:37.811Z,99180.31
2022-07-29T13:31:06.412Z,99190.75
2022-07-29T13:33:33.942Z,99182.53
2022-07-29T13:36:02.415Z,99169.53
2022-07-29T13:38:31.135Z,99190.28
2022-07-29T13:40:59.451Z,99186.00
2022-07-29T13:43:27.773Z,99179.13
2022-07-29T13:45:55.371Z,99174.69
2022-07-29T13:48:22.883Z,99170.72
2022-07-29T13:50:50.777Z,99165.78
2022-07-29T13:53:18.222Z,99172.16
2022-07-29T13:55:50.513Z,99167.13
2022-07-29T13:58:19.437Z,99157.31
2022-07-29T14:00:48.028Z,99169.38
2022-07-29T14:03:45.865Z,99168.41
2022-07-29T14:06:16.430Z,99167.63
2022-07-29T14:08:50.619Z,99150.19
2022-07-29T14:11:24.148Z,99162.22
2022-07-29T14:13:56.431Z,99163.66
2022-07-29T14:16:24.050Z,99160.16
2022-07-29T14:18:51.251Z,99157.00
2022-07-29T14:21:18.627Z,99150.50
2022-07-29T14:23:46.195Z,99140.97
2022-07-29T14:26:15.917Z,99147.63
2022-07-29T14:28:49.837Z,99144.06
2022-07-29T14:31:18.080Z,99140.94
2022-07-29T14:33:46.345Z,99151.91
2022-07-29T14:36:18.960Z,99152.88
2022-07-29T14:38:48.239Z,99156.69
2022-07-29T14:41:15.623Z,99153.97
2022-07-29T14:43:43.287Z,99141.41
2022-07-29T14:46:10.700Z,99152.44
2022-07-29T14:48:38.304Z,99147.44
2022-07-29T14:51:06.700Z,99152.63
2022-07-29T14:53:34.626Z,99147.69
2022-07-29T14:56:15.357Z,99141.84
2022-07-29T14:58:51.855Z,99143.56
2022-07-29T15:01:19.688Z,99142.00
2022-07-29T15:03:47.580Z,99147.66
2022-07-29T15:06:15.445Z,99146.22
2022-07-29T15:08:42.808Z,99148.47
2022-07-29T15:11:09.995Z,99139.41
2022-07-29T15:13:37.582Z,99141.94
2022-07-29T15:16:06.541Z,99142.75
2022-07-29T15:18:33.969Z,99140.19
2022-07-29T15:21:03.189Z,99136.72
2022-07-29T15:23:30.333Z,99137.56
2022-07-29T15:25:58.185Z,99133.09
2022-07-29T15:28:25.952Z,99135.03
2022-07-29T15:30:53.961Z,99134.75
2022-07-29T15:33:21.908Z,99123.66
2022-07-29T15:35:49.867Z,99120.19
2022-07-29T15:38:17.581Z,99127.47
2022-07-29T15:40:45.471Z,99120.66
2022-07-29T15:43:13.028Z,99120.50
2022-07-29T15:46:03.711Z,99115.09
2022-07-29T15:48:32.726Z,99117.41
2022-07-29T15:51:01.441Z,99115.88
2022-07-29T15:53:29.944Z,99112.78
2022-07-29T15:55:57.412Z,99117.91
2022-07-29T15:58:24.885Z,99112.72
2022-07-29T16:00:52.332Z,99111.53
2022-07-29T16:03:19.938Z,99113.91
2022-07-29T16:05:47.208Z,99122.69
2022-07-29T16:08:14.405Z,99114.25
2022-07-29T16:10:41.922Z,99129.31
2022-07-29T16:13:09.546Z,99121.84
2022-07-29T16:15:36.702Z,99114.91
2022-07-29T16:18:04.514Z,99121.28
2022-07-29T16:20:32.344Z,99114.03
2022-07-29T16:23:01.337Z,99106.44
2022-07-29T16:25:50.293Z,99120.28
2022-07-29T16:28:17.671Z,99105.06
2022-07-29T16:30:45.713Z,99111.25
2022-07-29T16:33:13.167Z,99123.16
2022-07-29T16:35:42.313Z,99125.00
2022-07-29T16:38:09.411Z,99107.50
2022-07-29T16:40:37.073Z,99118.63
2022-07-29T16:43:04.407Z,99111.41
2022-07-29T16:45:45.374Z,99119.59
2022-07-29T16:48:15.105Z,99124.34
2022-07-29T16:50:45.794Z,99127.53
2022-07-29T16:53:13.238Z,99121.19
2022-07-29T16:55:41.985Z,99116.88
2022-07-29T16:58:11.077Z,99130.31
2022-07-29T17:00:39.018Z,99128.03
2022-07-29T17:03:06.493Z,99125.28
2022-07-29T17:05:53.400Z,99122.84
2022-07-29T17:08:22.571Z,99126.75
2022-07-29T17:10:50.290Z,99133.31
2022-07-29T17:13:22.061Z,99139.41
2022-07-29T17:15:51.789Z,99132.56
2022-07-29T17:18:19.294Z,99132.16
2022-07-29T17:20:46.973Z,99121.44
2022-07-29T17:23:14.259Z,99129.88
2022-07-29T17:25:41.639Z,99135.50
2022-07-29T17:28:08.866Z,99127.16
2022-07-29T17:30:36.674Z,99138.00
2022-07-29T17:33:03.931Z,99137.09
2022-07-29T17:35:49.883Z,99142.59
2022-07-29T17:38:17.062Z,99146.13
2022-07-29T17:40:44.344Z,99146.03
2022-07-29T17:43:11.449Z,99141.78
2022-07-29T17:45:48.771Z,99140.31
2022-07-29T17:48:20.902Z,99143.41
2022-07-29T17:50:48.662Z,99152.84
2022-07-29T17:53:16.796Z,99150.66
2022-07-29T17:55:48.929Z,99142.91
2022-07-29T17:58:16.699Z,99157.69
2022-07-29T18:00:43.921Z,99150.47
2022-07-29T18:03:11.421Z,99151.03
2022-07-29T18:05:38.736Z,99166.00
2022-07-29T18:08:06.637Z,99158.59
2022-07-29T18:10:34.231Z,99174.69
2022-07-29T18:13:03.024Z,99179.88
2022-07-29T18:15:31.161Z,99179.53
2022-07-29T18:17:58.346Z,99176.09
2022-07-29T18:20:26.892Z,99179.13
2022-07-29T18:22:54.296Z,99182.75
2022-07-29T18:25:22.237Z,99181.75
2022-07-29T18:27:50.464Z,99180.00
2022-07-29T18:30:17.707Z,99191.34
2022-07-29T18:33:05.008Z,99201.53
2022-07-29T18:35:33.011Z,99195.31
2022-07-29T18:38:02.824Z,99203.91
2022-07-29T18:40:31.132Z,99205.69
2022-07-29T18:42:58.543Z,99192.19
2022-07-29T18:45:28.586Z,99199.69
2022-07-29T18:47:57.268Z,99194.09
2022-07-29T18:50:29.508Z,99190.97
2022-07-29T18:52:59.030Z,99194.59
2022-07-29T18:55:26.719Z,99196.91
2022-07-29T18:57:55.660Z,99205.03
2022-07-29T19:00:24.710Z,99205.09
2022-07-29T19:02:52.820Z,99190.28
2022-07-29T19:05:20.599Z,99195.50
2022-07-29T19:07:47.818Z,99203.72
2022-07-29T19:10:14.999Z,99209.22
2022-07-29T19:12:42.552Z,99204.22
2022-07-29T19:15:10.736Z,99217.78
2022-07-29T19:17:39.242Z,99218.72
2022-07-29T19:20:07.899Z,99216.41
2022-07-29T19:22:35.614Z,99216.50
2022-07-29T19:25:03.066Z,99206.63
2022-07-29T19:27:30.797Z,99224.75
2022-07-29T19:29:59.519Z,99220.78
2022-07-29T19:32:27.027Z,99218.53
2022-07-29T19:35:12.645Z,99226.22
2022-07-29T19:37:40.160Z,99221.06
2022-07-29T19:40:07.781Z,99227.53
2022-07-29T19:42:35.041Z,99225.63
2022-07-29T19:45:02.279Z,99233.25
2022-07-29T19:47:30.703Z,99244.56
2022-07-29T19:49:57.975Z,99226.63
2022-07-29T19:52:25.140Z,99246.66
2022-07-29T19:54:52.666Z,99231.06
2022-07-29T19:57:20.169Z,99234.25
2022-07-29T19:59:47.350Z,99244.25
2022-07-29T20:02:14.777Z,99252.06
2022-07-29T20:04:53.561Z,99251.41
2022-07-29T20:07:20.940Z,99244.66
2022-07-29T20:09:49.387Z,99252.06
2022-07-29T20:12:19.003Z,99256.22
2022-07-29T20:14:46.721Z,99251.31
2022-07-29T20:17:14.022Z,99264.31
2022-07-29T20:19:42.748Z,99270.88
2022-07-29T20:22:10.223Z,99261.47
2022-07-29T20:24:38.033Z,99254.34
2022-07-29T20:27:05.631Z,99253.78
2022-07-29T20:29:41.308Z,99261.72
2022-07-29T20:32:08.715Z,99266.31
2022-07-29T20:34:36.107Z,99270.56
2022-07-29T20:37:08.109Z,99265.16
2022-07-29T20:39:35.341Z,99266.50
2022-07-29T20:42:04.097Z,99274.66
2022-07-29T20:44:31.478Z,99269.03
2022-07-29T20:46:59.085Z,99263.91
2022-07-29T20:49:26.796Z,99264.75
2022-07-29T20:51:54.006Z,99246.72
2022-07-29T20:54:21.174Z,99255.09
2022-07-29T20:56:48.503Z,99248.72
2022-07-29T20:59:17.287Z,99255.91
2022-07-29T21:01:45.064Z,99255.09
2022-07-29T21:04:12.382Z,99261.59
2022-07-29T21:06:39.474Z,99267.28
2022-07-29T21:09:07.044Z,99267.78
2022-07-29T21:11:44.463Z,99268.66
2022-07-29T21:14:24.167Z,99262.00
2022-07-29T21:16:51.429Z,99265.72
2022-07-29T21:19:18.645Z,99266.09
2022-07-29T21:21:45.822Z,99261.31
2022-07-29T21:24:13.179Z,99269.81
2022-07-29T21:26:40.556Z,99256.28
2022-07-29T21:29:08.426Z,99260.72
2022-07-29T21:31:35.471Z,99254.41
2022-07-29T21:34:02.691Z,99264.81
2022-07-29T21:39:17.207Z,99272.13
2022-07-29T21:41:44.465Z,99256.47
2022-07-29T21:44:11.681Z,99263.34
2022-07-29T21:46:38.986Z,99261.38
2022-07-29T21:49:06.413Z,99260.97
2022-07-29T21:51:33.690Z,99259.03
2022-07-29T21:54:01.140Z,99264.25
2022-07-29T21:56:29.703Z,99269.88
2022-07-29T21:58:58.805Z,99263.13
2022-07-29T22:01:26.040Z,99277.16
2022-07-29T22:03:53.306Z,99267.94
2022-07-29T22:06:20.725Z,99265.13
2022-07-29T22:08:48.202Z,99272.72
2022-07-29T22:11:15.836Z,99276.31
2022-07-29T22:13:43.032Z,99274.75
2022-07-29T22:16:14.927Z,99251.47
2022-07-29T22:18:45.151Z,99249.09
2022-07-29T22:21:13.270Z,99240.22
2022-07-29T22:23:40.895Z,99255.09
2022-07-29T22:26:08.710Z,99237.44
2022-07-29T22:28:36.251Z,99249.47
2022-07-29T22:31:07.809Z,99251.47
2022-07-29T22:33:35.207Z,99255.50
2022-07-29T22:36:02.394Z,99263.13
2022-07-29T22:38:29.729Z,99271.53
2022-07-29T22:41:00.664Z,99277.16
2022-07-29T22:43:29.010Z,99259.91
2022-07-29T22:45:56.285Z,99245.09
2022-07-29T22:48:23.678Z,99277.16
2022-07-29T22:50:51.862Z,99255.53
2022-07-29T22:53:19.260Z,99261.13
2022-07-29T22:55:46.414Z,99248.31
2022-07-29T22:58:13.598Z,99255.53
2022-07-29T23:00:41.389Z,99246.31
2022-07-29T23:03:08.477Z,99246.28
2022-07-29T23:05:36.275Z,99240.69
2022-07-29T23:08:03.833Z,99241.09
2022-07-29T23:10:31.110Z,99245.88
2022-07-29T23:12:58.483Z,99239.00
2022-07-29T23:15:26.034Z,99238.59
2022-07-29T23:17:53.309Z,99228.19
2022-07-29T23:20:20.567Z,99223.00
2022-07-29T23:22:47.819Z,99226.19
2022-07-29T23:25:15.003Z,99218.94
2022-07-29T23:27:42.366Z,99217.31
2022-07-29T23:30:10.137Z,99211.31
2022-07-29T23:32:37.354Z,99210.53
2022-07-29T23:35:05.717Z,99218.53
2022-07-29T23:37:33.886Z,99202.50
2022-07-29T23:40:00.965Z,99208.09
2022-07-29T23:42:28.699Z,99225.72
2022-07-29T23:44:55.849Z,99213.31
2022-07-29T23:47:23.105Z,99225.72
2022-07-29T23:49:50.357Z,99224.13
2022-07-29T23:52:19.127Z,99224.94
2022-07-29T23:54:46.439Z,99222.13
2022-07-29T23:57:13.856Z,99216.91
2022-07-29T23:59:41.175Z,99214.88
